sensor_id;sensor_type;location;lat;lon;timestamp;P1;durP1;ratioP1;P2;durP2;ratioP2
21046;SDS011;10682;50.874;3.656;2023-11-19T00:00:08;15.47;;;3.23;;
21046;SDS011;10682;50.874;3.656;2023-11-19T00:02:39;21.20;;;3.20;;
21046;SDS011;10682;50.874;3.656;2023-11-19T00:05:07;22.00;;;3.93;;
21046;SDS011;10682;50.874;3.656;2023-11-19T00:07:36;17.50;;;3.60;;
21046;SDS011;10682;50.874;3.656;2023-11-19T00:10:11;16.50;;;3.40;;
21046;SDS011;10682;50.874;3.656;2023-11-19T00:12:48;21.20;;;3.80;;
21046;SDS011;10682;50.874;3.656;2023-11-19T00:15:16;24.03;;;3.23;;
21046;SDS011;10682;50.874;3.656;2023-11-19T00:17:45;20.93;;;3.47;;
21046;SDS011;10682;50.874;3.656;2023-11-19T00:20:15;28.07;;;4.30;;
21046;SDS011;10682;50.874;3.656;2023-11-19T00:22:44;28.17;;;4.00;;
21046;SDS011;10682;50.874;3.656;2023-11-19T00:25:18;25.20;;;3.90;;
21046;SDS011;10682;50.874;3.656;2023-11-19T00:27:48;21.73;;;4.07;;
21046;SDS011;10682;50.874;3.656;2023-11-19T00:30:17;30.50;;;4.20;;
21046;SDS011;10682;50.874;3.656;2023-11-19T00:32:44;23.53;;;4.00;;
21046;SDS011;10682;50.874;3.656;2023-11-19T00:35:12;18.40;;;3.50;;
21046;SDS011;10682;50.874;3.656;2023-11-19T00:37:42;33.73;;;4.00;;
21046;SDS011;10682;50.874;3.656;2023-11-19T00:40:09;24.20;;;4.17;;
21046;SDS011;10682;50.874;3.656;2023-11-19T00:42:37;26.73;;;3.73;;
21046;SDS011;10682;50.874;3.656;2023-11-19T00:45:05;25.40;;;4.07;;
21046;SDS011;10682;50.874;3.656;2023-11-19T00:47:36;24.10;;;3.70;;
21046;SDS011;10682;50.874;3.656;2023-11-19T00:50:03;30.80;;;4.50;;
21046;SDS011;10682;50.874;3.656;2023-11-19T00:52:31;31.83;;;5.07;;
21046;SDS011;10682;50.874;3.656;2023-11-19T00:55:02;24.03;;;3.93;;
21046;SDS011;10682;50.874;3.656;2023-11-19T00:57:31;24.37;;;4.13;;
21046;SDS011;10682;50.874;3.656;2023-11-19T01:00:02;22.23;;;3.20;;
21046;SDS011;10682;50.874;3.656;2023-11-19T01:02:41;20.83;;;3.70;;
21046;SDS011;10682;50.874;3.656;2023-11-19T01:05:08;20.90;;;3.50;;
21046;SDS011;10682;50.874;3.656;2023-11-19T01:07:36;26.63;;;3.43;;
21046;SDS011;10682;50.874;3.656;2023-11-19T01:10:03;18.77;;;3.23;;
21046;SDS011;10682;50.874;3.656;2023-11-19T01:12:31;22.30;;;3.83;;
21046;SDS011;10682;50.874;3.656;2023-11-19T01:14:58;24.10;;;4.10;;
21046;SDS011;10682;50.874;3.656;2023-11-19T01:17:25;19.60;;;3.80;;
21046;SDS011;10682;50.874;3.656;2023-11-19T01:19:52;21.43;;;3.67;;
21046;SDS011;10682;50.874;3.656;2023-11-19T01:22:19;25.00;;;3.90;;
21046;SDS011;10682;50.874;3.656;2023-11-19T01:24:46;25.30;;;4.00;;
21046;SDS011;10682;50.874;3.656;2023-11-19T01:27:13;29.23;;;4.10;;
21046;SDS011;10682;50.874;3.656;2023-11-19T01:29:40;28.17;;;4.10;;
21046;SDS011;10682;50.874;3.656;2023-11-19T01:32:09;31.97;;;4.37;;
21046;SDS011;10682;50.874;3.656;2023-11-19T01:34:36;27.07;;;4.33;;
21046;SDS011;10682;50.874;3.656;2023-11-19T01:37:03;35.97;;;4.63;;
21046;SDS011;10682;50.874;3.656;2023-11-19T01:39:30;31.80;;;4.67;;
21046;SDS011;10682;50.874;3.656;2023-11-19T01:41:57;26.63;;;4.20;;
21046;SDS011;10682;50.874;3.656;2023-11-19T01:44:25;35.03;;;4.70;;
21046;SDS011;10682;50.874;3.656;2023-11-19T01:46:52;33.27;;;4.47;;
21046;SDS011;10682;50.874;3.656;2023-11-19T01:49:19;27.77;;;4.90;;
21046;SDS011;10682;50.874;3.656;2023-11-19T01:51:46;33.37;;;4.77;;
21046;SDS011;10682;50.874;3.656;2023-11-19T01:54:14;32.03;;;4.10;;
21046;SDS011;10682;50.874;3.656;2023-11-19T01:56:42;35.67;;;4.67;;
21046;SDS011;10682;50.874;3.656;2023-11-19T01:59:09;31.33;;;4.03;;
21046;SDS011;10682;50.874;3.656;2023-11-19T02:01:40;35.83;;;5.00;;
21046;SDS011;10682;50.874;3.656;2023-11-19T02:04:08;33.17;;;4.97;;
21046;SDS011;10682;50.874;3.656;2023-11-19T02:06:37;32.33;;;4.10;;
21046;SDS011;10682;50.874;3.656;2023-11-19T02:09:09;27.07;;;4.20;;
21046;SDS011;10682;50.874;3.656;2023-11-19T02:11:36;36.17;;;4.80;;
21046;SDS011;10682;50.874;3.656;2023-11-19T02:14:07;30.63;;;4.43;;
21046;SDS011;10682;50.874;3.656;2023-11-19T02:16:34;37.30;;;5.10;;
21046;SDS011;10682;50.874;3.656;2023-11-19T02:19:01;30.10;;;4.97;;
21046;SDS011;10682;50.874;3.656;2023-11-19T02:21:30;32.03;;;4.40;;
21046;SDS011;10682;50.874;3.656;2023-11-19T02:23:57;30.77;;;5.23;;
21046;SDS011;10682;50.874;3.656;2023-11-19T02:29:36;30.00;;;5.13;;
21046;SDS011;10682;50.874;3.656;2023-11-19T02:32:04;34.43;;;4.40;;
21046;SDS011;10682;50.874;3.656;2023-11-19T02:34:31;36.20;;;4.87;;
21046;SDS011;10682;50.874;3.656;2023-11-19T02:36:58;34.70;;;4.80;;
21046;SDS011;10682;50.874;3.656;2023-11-19T02:39:26;34.80;;;4.47;;
21046;SDS011;10682;50.874;3.656;2023-11-19T02:41:53;32.57;;;4.33;;
21046;SDS011;10682;50.874;3.656;2023-11-19T02:44:20;24.87;;;3.80;;
21046;SDS011;10682;50.874;3.656;2023-11-19T02:46:47;38.50;;;4.87;;
21046;SDS011;10682;50.874;3.656;2023-11-19T02:49:15;35.43;;;4.57;;
21046;SDS011;10682;50.874;3.656;2023-11-19T02:51:42;27.50;;;4.30;;
21046;SDS011;10682;50.874;3.656;2023-11-19T02:54:09;45.37;;;5.43;;
21046;SDS011;10682;50.874;3.656;2023-11-19T02:56:36;36.17;;;4.57;;
21046;SDS011;10682;50.874;3.656;2023-11-19T02:59:05;44.80;;;4.80;;
21046;SDS011;10682;50.874;3.656;2023-11-19T03:01:35;31.97;;;4.93;;
21046;SDS011;10682;50.874;3.656;2023-11-19T03:04:02;36.43;;;4.83;;
21046;SDS011;10682;50.874;3.656;2023-11-19T03:06:30;36.27;;;4.37;;
21046;SDS011;10682;50.874;3.656;2023-11-19T03:08:58;31.67;;;4.43;;
21046;SDS011;10682;50.874;3.656;2023-11-19T03:11:32;29.73;;;4.27;;
21046;SDS011;10682;50.874;3.656;2023-11-19T03:13:59;38.30;;;4.50;;
21046;SDS011;10682;50.874;3.656;2023-11-19T03:16:26;32.53;;;4.30;;
21046;SDS011;10682;50.874;3.656;2023-11-19T03:18:53;34.40;;;4.43;;
21046;SDS011;10682;50.874;3.656;2023-11-19T03:21:27;37.57;;;4.53;;
21046;SDS011;10682;50.874;3.656;2023-11-19T03:24:00;29.10;;;4.97;;
21046;SDS011;10682;50.874;3.656;2023-11-19T03:26:27;28.87;;;4.33;;
21046;SDS011;10682;50.874;3.656;2023-11-19T03:28:54;35.17;;;5.13;;
21046;SDS011;10682;50.874;3.656;2023-11-19T03:31:23;32.90;;;5.50;;
21046;SDS011;10682;50.874;3.656;2023-11-19T03:33:51;41.63;;;5.20;;
21046;SDS011;10682;50.874;3.656;2023-11-19T03:36:20;40.87;;;4.97;;
21046;SDS011;10682;50.874;3.656;2023-11-19T03:38:47;30.97;;;4.60;;
21046;SDS011;10682;50.874;3.656;2023-11-19T03:41:15;42.57;;;4.90;;
21046;SDS011;10682;50.874;3.656;2023-11-19T03:43:43;53.20;;;6.97;;
21046;SDS011;10682;50.874;3.656;2023-11-19T03:46:20;42.57;;;5.53;;
21046;SDS011;10682;50.874;3.656;2023-11-19T03:48:48;38.70;;;5.33;;
21046;SDS011;10682;50.874;3.656;2023-11-19T03:51:16;39.90;;;5.50;;
21046;SDS011;10682;50.874;3.656;2023-11-19T03:53:47;37.37;;;4.70;;
21046;SDS011;10682;50.874;3.656;2023-11-19T03:56:14;42.93;;;4.57;;
21046;SDS011;10682;50.874;3.656;2023-11-19T03:58:41;41.23;;;4.93;;
21046;SDS011;10682;50.874;3.656;2023-11-19T04:01:11;34.13;;;4.83;;
21046;SDS011;10682;50.874;3.656;2023-11-19T04:03:40;32.93;;;5.90;;
21046;SDS011;10682;50.874;3.656;2023-11-19T04:06:16;34.70;;;5.07;;
21046;SDS011;10682;50.874;3.656;2023-11-19T04:08:44;35.00;;;4.83;;
21046;SDS011;10682;50.874;3.656;2023-11-19T04:11:11;34.10;;;4.83;;
21046;SDS011;10682;50.874;3.656;2023-11-19T04:13:38;35.40;;;5.43;;
21046;SDS011;10682;50.874;3.656;2023-11-19T04:16:05;36.73;;;4.90;;
21046;SDS011;10682;50.874;3.656;2023-11-19T04:18:33;42.80;;;5.20;;
21046;SDS011;10682;50.874;3.656;2023-11-19T04:21:00;40.43;;;5.70;;
21046;SDS011;10682;50.874;3.656;2023-11-19T04:23:27;42.90;;;4.73;;
21046;SDS011;10682;50.874;3.656;2023-11-19T04:25:54;39.43;;;6.00;;
21046;SDS011;10682;50.874;3.656;2023-11-19T04:28:36;33.77;;;5.00;;
21046;SDS011;10682;50.874;3.656;2023-11-19T04:31:03;53.23;;;5.77;;
21046;SDS011;10682;50.874;3.656;2023-11-19T04:33:32;42.07;;;5.17;;
21046;SDS011;10682;50.874;3.656;2023-11-19T04:35:59;51.73;;;6.40;;
21046;SDS011;10682;50.874;3.656;2023-11-19T04:38:26;49.50;;;6.57;;
21046;SDS011;10682;50.874;3.656;2023-11-19T04:40:53;44.67;;;5.13;;
21046;SDS011;10682;50.874;3.656;2023-11-19T04:43:23;35.07;;;5.03;;
21046;SDS011;10682;50.874;3.656;2023-11-19T04:45:50;38.30;;;5.30;;
21046;SDS011;10682;50.874;3.656;2023-11-19T04:48:18;43.10;;;5.80;;
21046;SDS011;10682;50.874;3.656;2023-11-19T04:50:45;43.10;;;5.63;;
21046;SDS011;10682;50.874;3.656;2023-11-19T04:53:12;44.67;;;5.63;;
21046;SDS011;10682;50.874;3.656;2023-11-19T04:55:39;35.10;;;4.97;;
21046;SDS011;10682;50.874;3.656;2023-11-19T04:58:06;48.37;;;5.53;;
21046;SDS011;10682;50.874;3.656;2023-11-19T05:00:33;48.03;;;6.43;;
21046;SDS011;10682;50.874;3.656;2023-11-19T05:03:00;44.87;;;5.33;;
21046;SDS011;10682;50.874;3.656;2023-11-19T05:05:28;52.90;;;5.90;;
21046;SDS011;10682;50.874;3.656;2023-11-19T05:07:55;40.40;;;5.70;;
21046;SDS011;10682;50.874;3.656;2023-11-19T05:10:23;38.73;;;6.47;;
21046;SDS011;10682;50.874;3.656;2023-11-19T05:12:51;48.57;;;6.30;;
21046;SDS011;10682;50.874;3.656;2023-11-19T05:15:18;35.83;;;4.83;;
21046;SDS011;10682;50.874;3.656;2023-11-19T05:17:45;54.60;;;5.90;;
21046;SDS011;10682;50.874;3.656;2023-11-19T05:20:13;38.70;;;5.77;;
21046;SDS011;10682;50.874;3.656;2023-11-19T05:22:40;42.80;;;5.40;;
21046;SDS011;10682;50.874;3.656;2023-11-19T05:25:08;47.70;;;5.97;;
21046;SDS011;10682;50.874;3.656;2023-11-19T05:27:37;34.63;;;5.17;;
21046;SDS011;10682;50.874;3.656;2023-11-19T05:30:05;41.87;;;5.53;;
21046;SDS011;10682;50.874;3.656;2023-11-19T05:32:37;48.40;;;5.17;;
21046;SDS011;10682;50.874;3.656;2023-11-19T05:35:05;43.23;;;6.03;;
21046;SDS011;10682;50.874;3.656;2023-11-19T05:37:33;51.77;;;6.07;;
21046;SDS011;10682;50.874;3.656;2023-11-19T05:40:01;41.27;;;5.30;;
21046;SDS011;10682;50.874;3.656;2023-11-19T05:42:31;47.83;;;5.87;;
21046;SDS011;10682;50.874;3.656;2023-11-19T05:44:58;51.87;;;5.47;;
21046;SDS011;10682;50.874;3.656;2023-11-19T05:47:25;47.30;;;5.73;;
21046;SDS011;10682;50.874;3.656;2023-11-19T05:49:52;41.17;;;5.33;;
21046;SDS011;10682;50.874;3.656;2023-11-19T05:52:19;39.30;;;5.00;;
21046;SDS011;10682;50.874;3.656;2023-11-19T05:54:48;42.37;;;5.60;;
21046;SDS011;10682;50.874;3.656;2023-11-19T05:57:18;48.00;;;5.63;;
21046;SDS011;10682;50.874;3.656;2023-11-19T05:59:50;51.13;;;6.70;;
21046;SDS011;10682;50.874;3.656;2023-11-19T06:02:17;45.93;;;5.70;;
21046;SDS011;10682;50.874;3.656;2023-11-19T06:04:44;38.30;;;5.40;;
21046;SDS011;10682;50.874;3.656;2023-11-19T06:07:14;48.17;;;5.77;;
21046;SDS011;10682;50.874;3.656;2023-11-19T06:09:41;42.53;;;5.90;;
21046;SDS011;10682;50.874;3.656;2023-11-19T06:12:08;36.43;;;5.17;;
21046;SDS011;10682;50.874;3.656;2023-11-19T06:14:36;43.03;;;6.13;;
21046;SDS011;10682;50.874;3.656;2023-11-19T06:17:03;44.60;;;5.67;;
21046;SDS011;10682;50.874;3.656;2023-11-19T06:19:31;45.67;;;5.13;;
21046;SDS011;10682;50.874;3.656;2023-11-19T06:22:00;45.43;;;5.63;;
21046;SDS011;10682;50.874;3.656;2023-11-19T06:24:27;43.77;;;6.23;;
21046;SDS011;10682;50.874;3.656;2023-11-19T06:26:54;54.13;;;5.80;;
21046;SDS011;10682;50.874;3.656;2023-11-19T06:29:21;48.30;;;6.80;;
21046;SDS011;10682;50.874;3.656;2023-11-19T06:31:48;47.03;;;5.37;;
21046;SDS011;10682;50.874;3.656;2023-11-19T06:34:15;50.90;;;5.70;;
21046;SDS011;10682;50.874;3.656;2023-11-19T06:36:42;46.93;;;5.63;;
21046;SDS011;10682;50.874;3.656;2023-11-19T06:39:10;56.10;;;5.50;;
21046;SDS011;10682;50.874;3.656;2023-11-19T06:41:37;40.37;;;5.37;;
21046;SDS011;10682;50.874;3.656;2023-11-19T06:44:05;43.77;;;6.20;;
21046;SDS011;10682;50.874;3.656;2023-11-19T06:46:32;45.37;;;6.63;;
21046;SDS011;10682;50.874;3.656;2023-11-19T06:49:00;49.47;;;6.40;;
21046;SDS011;10682;50.874;3.656;2023-11-19T06:51:27;44.73;;;6.63;;
21046;SDS011;10682;50.874;3.656;2023-11-19T06:53:56;40.53;;;6.03;;
21046;SDS011;10682;50.874;3.656;2023-11-19T06:56:23;51.20;;;5.73;;
21046;SDS011;10682;50.874;3.656;2023-11-19T06:58:51;41.00;;;5.73;;
21046;SDS011;10682;50.874;3.656;2023-11-19T07:01:18;42.77;;;5.50;;
21046;SDS011;10682;50.874;3.656;2023-11-19T07:03:46;47.17;;;6.63;;
21046;SDS011;10682;50.874;3.656;2023-11-19T07:06:15;43.43;;;6.07;;
21046;SDS011;10682;50.874;3.656;2023-11-19T07:08:42;44.17;;;5.40;;
21046;SDS011;10682;50.874;3.656;2023-11-19T07:11:13;46.37;;;5.33;;
21046;SDS011;10682;50.874;3.656;2023-11-19T07:13:43;46.30;;;5.90;;
21046;SDS011;10682;50.874;3.656;2023-11-19T07:16:13;49.03;;;6.23;;
21046;SDS011;10682;50.874;3.656;2023-11-19T07:18:41;48.23;;;6.43;;
21046;SDS011;10682;50.874;3.656;2023-11-19T07:21:10;52.37;;;5.93;;
21046;SDS011;10682;50.874;3.656;2023-11-19T07:23:37;53.83;;;5.20;;
21046;SDS011;10682;50.874;3.656;2023-11-19T07:26:05;45.37;;;5.63;;
21046;SDS011;10682;50.874;3.656;2023-11-19T07:28:35;43.97;;;6.30;;
21046;SDS011;10682;50.874;3.656;2023-11-19T07:31:02;45.83;;;6.47;;
21046;SDS011;10682;50.874;3.656;2023-11-19T07:33:29;44.63;;;6.07;;
21046;SDS011;10682;50.874;3.656;2023-11-19T07:35:57;49.40;;;6.80;;
21046;SDS011;10682;50.874;3.656;2023-11-19T07:38:24;48.87;;;6.10;;
21046;SDS011;10682;50.874;3.656;2023-11-19T07:40:51;51.73;;;6.63;;
21046;SDS011;10682;50.874;3.656;2023-11-19T07:43:21;44.87;;;5.90;;
21046;SDS011;10682;50.874;3.656;2023-11-19T07:45:48;44.47;;;6.37;;
21046;SDS011;10682;50.874;3.656;2023-11-19T07:48:15;38.60;;;6.43;;
21046;SDS011;10682;50.874;3.656;2023-11-19T07:50:44;44.50;;;6.40;;
21046;SDS011;10682;50.874;3.656;2023-11-19T07:53:11;42.53;;;6.10;;
21046;SDS011;10682;50.874;3.656;2023-11-19T07:55:39;40.07;;;5.47;;
21046;SDS011;10682;50.874;3.656;2023-11-19T07:58:08;45.40;;;5.97;;
21046;SDS011;10682;50.874;3.656;2023-11-19T08:00:36;42.67;;;5.77;;
21046;SDS011;10682;50.874;3.656;2023-11-19T08:03:04;37.10;;;5.70;;
21046;SDS011;10682;50.874;3.656;2023-11-19T08:05:32;44.23;;;5.37;;
21046;SDS011;10682;50.874;3.656;2023-11-19T08:07:59;52.17;;;5.87;;
21046;SDS011;10682;50.874;3.656;2023-11-19T08:10:26;41.67;;;5.63;;
21046;SDS011;10682;50.874;3.656;2023-11-19T08:12:53;38.63;;;5.00;;
21046;SDS011;10682;50.874;3.656;2023-11-19T08:15:20;46.13;;;6.27;;
21046;SDS011;10682;50.874;3.656;2023-11-19T08:17:50;39.50;;;4.83;;
21046;SDS011;10682;50.874;3.656;2023-11-19T08:20:18;42.17;;;5.90;;
21046;SDS011;10682;50.874;3.656;2023-11-19T08:22:46;46.33;;;5.47;;
21046;SDS011;10682;50.874;3.656;2023-11-19T08:25:13;47.40;;;5.47;;
21046;SDS011;10682;50.874;3.656;2023-11-19T08:27:41;38.47;;;5.23;;
21046;SDS011;10682;50.874;3.656;2023-11-19T08:30:09;33.43;;;5.70;;
21046;SDS011;10682;50.874;3.656;2023-11-19T08:32:37;39.47;;;4.93;;
21046;SDS011;10682;50.874;3.656;2023-11-19T08:35:04;44.83;;;5.50;;
21046;SDS011;10682;50.874;3.656;2023-11-19T08:37:32;34.87;;;5.07;;
21046;SDS011;10682;50.874;3.656;2023-11-19T08:39:59;40.77;;;4.87;;
21046;SDS011;10682;50.874;3.656;2023-11-19T08:42:27;36.67;;;5.37;;
21046;SDS011;10682;50.874;3.656;2023-11-19T08:44:54;39.17;;;5.30;;
21046;SDS011;10682;50.874;3.656;2023-11-19T08:47:21;36.33;;;4.93;;
21046;SDS011;10682;50.874;3.656;2023-11-19T08:49:52;39.80;;;5.97;;
21046;SDS011;10682;50.874;3.656;2023-11-19T08:52:23;39.10;;;5.00;;
21046;SDS011;10682;50.874;3.656;2023-11-19T08:54:50;38.37;;;4.77;;
21046;SDS011;10682;50.874;3.656;2023-11-19T08:57:17;39.13;;;5.13;;
21046;SDS011;10682;50.874;3.656;2023-11-19T08:59:44;36.90;;;4.97;;
21046;SDS011;10682;50.874;3.656;2023-11-19T09:02:12;43.47;;;5.40;;
21046;SDS011;10682;50.874;3.656;2023-11-19T09:04:41;31.97;;;4.07;;
21046;SDS011;10682;50.874;3.656;2023-11-19T09:07:08;37.70;;;5.57;;
21046;SDS011;10682;50.874;3.656;2023-11-19T09:09:38;34.03;;;4.27;;
21046;SDS011;10682;50.874;3.656;2023-11-19T09:12:05;27.93;;;3.93;;
21046;SDS011;10682;50.874;3.656;2023-11-19T09:14:32;34.47;;;4.43;;
21046;SDS011;10682;50.874;3.656;2023-11-19T09:16:59;26.77;;;4.47;;
21046;SDS011;10682;50.874;3.656;2023-11-19T09:19:28;23.83;;;4.07;;
21046;SDS011;10682;50.874;3.656;2023-11-19T09:21:55;21.97;;;4.40;;
21046;SDS011;10682;50.874;3.656;2023-11-19T09:24:22;26.07;;;3.83;;
21046;SDS011;10682;50.874;3.656;2023-11-19T09:26:49;30.83;;;4.67;;
21046;SDS011;10682;50.874;3.656;2023-11-19T09:29:16;37.50;;;6.13;;
21046;SDS011;10682;50.874;3.656;2023-11-19T09:31:44;27.07;;;4.37;;
21046;SDS011;10682;50.874;3.656;2023-11-19T09:34:11;42.47;;;5.87;;
21046;SDS011;10682;50.874;3.656;2023-11-19T09:36:38;29.00;;;3.73;;
21046;SDS011;10682;50.874;3.656;2023-11-19T09:39:13;24.57;;;4.03;;
21046;SDS011;10682;50.874;3.656;2023-11-19T09:41:44;28.03;;;4.43;;
21046;SDS011;10682;50.874;3.656;2023-11-19T09:44:11;31.77;;;4.50;;
21046;SDS011;10682;50.874;3.656;2023-11-19T09:46:39;30.93;;;4.27;;
21046;SDS011;10682;50.874;3.656;2023-11-19T09:49:08;34.43;;;5.17;;
21046;SDS011;10682;50.874;3.656;2023-11-19T09:51:37;25.10;;;4.30;;
21046;SDS011;10682;50.874;3.656;2023-11-19T09:54:04;33.20;;;4.37;;
21046;SDS011;10682;50.874;3.656;2023-11-19T09:56:31;37.63;;;4.87;;
21046;SDS011;10682;50.874;3.656;2023-11-19T09:59:01;33.83;;;4.20;;
21046;SDS011;10682;50.874;3.656;2023-11-19T10:01:29;35.80;;;4.47;;
21046;SDS011;10682;50.874;3.656;2023-11-19T10:03:58;36.57;;;4.73;;
21046;SDS011;10682;50.874;3.656;2023-11-19T10:06:26;33.80;;;4.93;;
21046;SDS011;10682;50.874;3.656;2023-11-19T10:08:53;34.83;;;4.40;;
21046;SDS011;10682;50.874;3.656;2023-11-19T10:11:21;36.27;;;4.77;;
21046;SDS011;10682;50.874;3.656;2023-11-19T10:13:49;29.97;;;4.43;;
21046;SDS011;10682;50.874;3.656;2023-11-19T10:16:17;34.93;;;4.00;;
21046;SDS011;10682;50.874;3.656;2023-11-19T10:18:45;34.73;;;4.50;;
21046;SDS011;10682;50.874;3.656;2023-11-19T10:21:19;33.40;;;4.80;;
21046;SDS011;10682;50.874;3.656;2023-11-19T10:23:50;32.40;;;4.07;;
21046;SDS011;10682;50.874;3.656;2023-11-19T10:26:20;31.63;;;4.53;;
21046;SDS011;10682;50.874;3.656;2023-11-19T10:28:47;29.77;;;4.27;;
21046;SDS011;10682;50.874;3.656;2023-11-19T10:31:15;28.13;;;4.10;;
21046;SDS011;10682;50.874;3.656;2023-11-19T10:33:44;31.13;;;4.53;;
21046;SDS011;10682;50.874;3.656;2023-11-19T10:36:12;24.93;;;3.67;;
21046;SDS011;10682;50.874;3.656;2023-11-19T10:38:41;23.27;;;3.87;;
21046;SDS011;10682;50.874;3.656;2023-11-19T10:41:26;23.10;;;3.90;;
21046;SDS011;10682;50.874;3.656;2023-11-19T10:43:59;34.90;;;5.07;;
21046;SDS011;10682;50.874;3.656;2023-11-19T10:46:39;30.63;;;4.20;;
21046;SDS011;10682;50.874;3.656;2023-11-19T10:49:08;28.93;;;4.20;;
21046;SDS011;10682;50.874;3.656;2023-11-19T10:51:36;27.27;;;3.77;;
21046;SDS011;10682;50.874;3.656;2023-11-19T10:54:05;28.30;;;4.10;;
21046;SDS011;10682;50.874;3.656;2023-11-19T10:56:33;29.87;;;4.90;;
21046;SDS011;10682;50.874;3.656;2023-11-19T10:59:04;23.53;;;4.53;;
21046;SDS011;10682;50.874;3.656;2023-11-19T11:01:50;30.90;;;5.20;;
21046;SDS011;10682;50.874;3.656;2023-11-19T11:04:24;25.83;;;4.50;;
21046;SDS011;10682;50.874;3.656;2023-11-19T11:06:54;30.97;;;4.20;;
21046;SDS011;10682;50.874;3.656;2023-11-19T11:09:22;30.60;;;4.70;;
21046;SDS011;10682;50.874;3.656;2023-11-19T11:11:50;27.97;;;3.90;;
21046;SDS011;10682;50.874;3.656;2023-11-19T11:14:19;27.50;;;4.80;;
21046;SDS011;10682;50.874;3.656;2023-11-19T11:16:48;30.77;;;4.00;;
21046;SDS011;10682;50.874;3.656;2023-11-19T11:19:16;29.17;;;5.00;;
21046;SDS011;10682;50.874;3.656;2023-11-19T11:21:47;31.53;;;4.30;;
21046;SDS011;10682;50.874;3.656;2023-11-19T11:24:36;33.07;;;5.27;;
21046;SDS011;10682;50.874;3.656;2023-11-19T11:27:14;29.37;;;4.63;;
21046;SDS011;10682;50.874;3.656;2023-11-19T11:32:41;35.50;;;5.07;;
21046;SDS011;10682;50.874;3.656;2023-11-19T11:35:38;33.27;;;5.03;;
21046;SDS011;10682;50.874;3.656;2023-11-19T11:38:22;24.27;;;4.10;;
21046;SDS011;10682;50.874;3.656;2023-11-19T11:43:52;30.37;;;4.87;;
21046;SDS011;10682;50.874;3.656;2023-11-19T11:54:27;32.17;;;4.07;;
21046;SDS011;10682;50.874;3.656;2023-11-19T11:57:10;23.83;;;3.30;;
21046;SDS011;10682;50.874;3.656;2023-11-19T11:59:50;29.47;;;4.27;;
21046;SDS011;10682;50.874;3.656;2023-11-19T12:02:20;29.83;;;3.57;;
21046;SDS011;10682;50.874;3.656;2023-11-19T12:04:49;30.40;;;4.93;;
21046;SDS011;10682;50.874;3.656;2023-11-19T12:07:22;36.83;;;4.50;;
21046;SDS011;10682;50.874;3.656;2023-11-19T12:10:05;33.57;;;3.80;;
21046;SDS011;10682;50.874;3.656;2023-11-19T12:12:34;34.00;;;4.50;;
21046;SDS011;10682;50.874;3.656;2023-11-19T12:15:05;33.33;;;3.93;;
21046;SDS011;10682;50.874;3.656;2023-11-19T12:17:43;25.50;;;4.20;;
21046;SDS011;10682;50.874;3.656;2023-11-19T12:20:19;27.30;;;5.53;;
21046;SDS011;10682;50.874;3.656;2023-11-19T12:22:55;27.00;;;4.20;;
21046;SDS011;10682;50.874;3.656;2023-11-19T12:25:23;34.20;;;4.70;;
21046;SDS011;10682;50.874;3.656;2023-11-19T12:27:50;33.90;;;4.40;;
21046;SDS011;10682;50.874;3.656;2023-11-19T12:30:23;25.30;;;4.33;;
21046;SDS011;10682;50.874;3.656;2023-11-19T12:32:52;42.20;;;4.70;;
21046;SDS011;10682;50.874;3.656;2023-11-19T12:35:22;31.57;;;4.23;;
21046;SDS011;10682;50.874;3.656;2023-11-19T12:37:50;32.33;;;5.17;;
21046;SDS011;10682;50.874;3.656;2023-11-19T12:40:19;34.13;;;4.70;;
21046;SDS011;10682;50.874;3.656;2023-11-19T12:42:51;46.03;;;5.70;;
21046;SDS011;10682;50.874;3.656;2023-11-19T12:45:21;37.73;;;5.33;;
21046;SDS011;10682;50.874;3.656;2023-11-19T12:47:50;34.40;;;5.77;;
21046;SDS011;10682;50.874;3.656;2023-11-19T12:50:54;39.37;;;4.90;;
21046;SDS011;10682;50.874;3.656;2023-11-19T12:53:24;41.10;;;5.37;;
21046;SDS011;10682;50.874;3.656;2023-11-19T12:55:53;34.47;;;4.77;;
21046;SDS011;10682;50.874;3.656;2023-11-19T12:58:31;36.77;;;4.37;;
21046;SDS011;10682;50.874;3.656;2023-11-19T13:01:01;38.53;;;5.03;;
21046;SDS011;10682;50.874;3.656;2023-11-19T13:03:34;38.27;;;5.57;;
21046;SDS011;10682;50.874;3.656;2023-11-19T13:06:09;29.70;;;5.50;;
21046;SDS011;10682;50.874;3.656;2023-11-19T13:08:39;32.10;;;4.80;;
21046;SDS011;10682;50.874;3.656;2023-11-19T13:11:08;45.30;;;4.40;;
21046;SDS011;10682;50.874;3.656;2023-11-19T13:16:22;34.53;;;4.83;;
21046;SDS011;10682;50.874;3.656;2023-11-19T13:18:50;41.77;;;5.03;;
21046;SDS011;10682;50.874;3.656;2023-11-19T13:21:18;36.47;;;5.80;;
21046;SDS011;10682;50.874;3.656;2023-11-19T13:23:45;40.37;;;5.23;;
21046;SDS011;10682;50.874;3.656;2023-11-19T13:26:12;26.13;;;4.13;;
21046;SDS011;10682;50.874;3.656;2023-11-19T13:28:39;29.17;;;5.37;;
21046;SDS011;10682;50.874;3.656;2023-11-19T13:31:07;29.77;;;4.67;;
21046;SDS011;10682;50.874;3.656;2023-11-19T13:33:34;29.30;;;4.47;;
21046;SDS011;10682;50.874;3.656;2023-11-19T13:36:03;32.90;;;4.43;;
21046;SDS011;10682;50.874;3.656;2023-11-19T13:38:34;43.07;;;4.63;;
21046;SDS011;10682;50.874;3.656;2023-11-19T13:41:02;30.17;;;5.93;;
21046;SDS011;10682;50.874;3.656;2023-11-19T13:43:31;28.60;;;4.07;;
21046;SDS011;10682;50.874;3.656;2023-11-19T13:45:58;34.50;;;3.97;;
21046;SDS011;10682;50.874;3.656;2023-11-19T13:48:25;34.87;;;4.17;;
21046;SDS011;10682;50.874;3.656;2023-11-19T13:50:53;34.87;;;4.70;;
21046;SDS011;10682;50.874;3.656;2023-11-19T13:53:24;32.53;;;4.13;;
21046;SDS011;10682;50.874;3.656;2023-11-19T13:55:51;31.93;;;4.73;;
21046;SDS011;10682;50.874;3.656;2023-11-19T13:58:19;35.97;;;4.90;;
21046;SDS011;10682;50.874;3.656;2023-11-19T14:00:46;43.20;;;5.60;;
21046;SDS011;10682;50.874;3.656;2023-11-19T14:03:13;33.23;;;4.40;;
21046;SDS011;10682;50.874;3.656;2023-11-19T14:05:48;30.03;;;4.80;;
21046;SDS011;10682;50.874;3.656;2023-11-19T14:08:18;32.30;;;5.33;;
21046;SDS011;10682;50.874;3.656;2023-11-19T14:10:51;35.20;;;4.20;;
21046;SDS011;10682;50.874;3.656;2023-11-19T14:13:21;29.97;;;3.93;;
21046;SDS011;10682;50.874;3.656;2023-11-19T14:15:49;36.80;;;5.13;;
21046;SDS011;10682;50.874;3.656;2023-11-19T14:18:17;31.63;;;4.80;;
21046;SDS011;10682;50.874;3.656;2023-11-19T14:20:45;33.30;;;4.40;;
21046;SDS011;10682;50.874;3.656;2023-11-19T14:23:12;30.60;;;3.93;;
21046;SDS011;10682;50.874;3.656;2023-11-19T14:25:39;32.37;;;4.00;;
21046;SDS011;10682;50.874;3.656;2023-11-19T14:28:06;34.50;;;4.50;;
21046;SDS011;10682;50.874;3.656;2023-11-19T14:30:34;34.67;;;4.50;;
21046;SDS011;10682;50.874;3.656;2023-11-19T14:33:01;28.23;;;3.70;;
21046;SDS011;10682;50.874;3.656;2023-11-19T14:35:30;23.87;;;3.93;;
21046;SDS011;10682;50.874;3.656;2023-11-19T14:37:59;28.87;;;4.20;;
21046;SDS011;10682;50.874;3.656;2023-11-19T14:40:26;30.90;;;4.60;;
21046;SDS011;10682;50.874;3.656;2023-11-19T14:42:56;32.93;;;4.13;;
21046;SDS011;10682;50.874;3.656;2023-11-19T14:45:23;30.43;;;4.40;;
21046;SDS011;10682;50.874;3.656;2023-11-19T14:47:50;38.97;;;4.83;;
21046;SDS011;10682;50.874;3.656;2023-11-19T14:50:19;30.83;;;4.63;;
21046;SDS011;10682;50.874;3.656;2023-11-19T14:52:46;31.73;;;4.80;;
21046;SDS011;10682;50.874;3.656;2023-11-19T14:55:13;23.50;;;3.60;;
21046;SDS011;10682;50.874;3.656;2023-11-19T14:57:40;36.47;;;4.63;;
21046;SDS011;10682;50.874;3.656;2023-11-19T15:00:14;28.10;;;3.97;;
21046;SDS011;10682;50.874;3.656;2023-11-19T15:02:43;38.63;;;5.03;;